• Join FlightAware (Why Join?)
  • Login
  • US Flag 
01:25PM EDT


 

Airport Tracker/Info


-or-


 

Live Flight TrackerFlight Track Log ✈ N993GT ✈ 14-Apr-2013 ✈ KSJC - KBOI

Flight Track Log - Related Links

Times and Time Zones

All times are in EDT time to prevent confusion due to time zone crossing. See the N993GT flight status page for this flight to view local times or setup timezone preferences in your user account.

Time Position Orientation Groundspeed Altitude Reporting Facility
EDT Latitude Longitude Course Direction KTS MPH feet Rate Location/Type
12:12PM 37.3667 -121.9333 345° North 134 154 1,300  Level Northern Cal TRACON
12:13PM 37.4167 -121.9500 345° North 216 249 4,800 1,980 Climbing Northern Cal TRACON
12:14PM 37.3833 -121.8833 122° Southeast 261 300 5,300 2,280 Climbing Northern Cal TRACON
12:15PM 37.3500 -121.8333 130° Southeast 275 316 9,200 3,780 Climbing Northern Cal TRACON
12:16PM 37.3278 -121.8353 184° South 270 311 10,000 3,300 Climbing Oakland Center
12:17PM 37.3436 -121.9086 285° West 262 302 13,700 4,020 Climbing Oakland Center
12:18PM 37.4439 -121.9019 North 312 359 18,200 3,780 Climbing Oakland Center
12:19PM 37.5369 -121.8717 14° North 340 391 21,400 3,000 Climbing Oakland Center
12:20PM 37.6356 -121.8381 15° North 363 418 24,300 2,700 Climbing Oakland Center
12:21PM 37.7386 -121.8006 16° North 383 441 27,000 2,700 Climbing Oakland Center
12:22PM 37.8486 -121.7619 15° North 407 468 29,800 2,700 Climbing Oakland Center
12:23PM 37.9575 -121.7117 20° North 421 484 32,600 2,700 Climbing Oakland Center
12:24PM 38.0594 -121.6336 31° Northeast 429 494 35,400 2,700 Climbing Oakland Center
12:25PM 38.1553 -121.5472 35° Northeast 426 490 38,200 2,460 Climbing Oakland Center
12:26PM 38.2592 -121.4561 35° Northeast 419 482 40,500 1,320 Climbing Oakland Center
12:27PM 38.3536 -121.3717 35° Northeast 420 483 41,000 240 Climbing Oakland Center
12:28PM 38.4683 -121.2683 35° Northeast 458 527 41,000  Level Oakland Center
12:29PM 38.5736 -121.1711 36° Northeast 467 537 41,000  Level Oakland Center
12:30PM 38.6822 -121.0750 35° Northeast 467 537 41,000  Level Oakland Center
12:31PM 38.7878 -120.9792 35° Northeast 466 536 41,000  Level Oakland Center
12:32PM 38.8936 -120.8825 35° Northeast 468 539 41,000  Level Oakland Center
12:33PM 39.0006 -120.7853 35° Northeast 471 542 41,000  Level Oakland Center
12:34PM 39.1058 -120.6881 36° Northeast 468 539 41,000  Level Oakland Center
12:35PM 39.2114 -120.5903 36° Northeast 467 537 41,000  Level Oakland Center
12:36PM 39.3158 -120.4944 35° Northeast 463 533 41,000  Level Oakland Center
12:37PM 39.4208 -120.3964 36° Northeast 465 535 41,000  Level Oakland Center
12:38PM 39.5475 -120.2775 36° Northeast 467 537 41,000  Level Oakland Center
12:39PM 39.6553 -120.1786 35° Northeast 472 543 41,000  Level Oakland Center
12:40PM 39.7578 -120.0817 36° Northeast 476 548 41,000  Level Oakland Center
12:41PM 39.8631 -119.9828 36° Northeast 469 540 41,000  Level Oakland Center
12:42PM 39.9700 -119.8822 36° Northeast 471 542 41,000  Level Oakland Center
12:43PM 40.0758 -119.7817 36° Northeast 470 541 41,000  Level Oakland Center
12:44PM 40.1814 -119.6814 36° Northeast 469 540 41,000  Level Oakland Center
12:45PM 40.2883 -119.5775 37° Northeast 474 545 41,000  Level Oakland Center
12:46PM 40.3961 -119.4756 36° Northeast 476 548 41,000  Level Oakland Center
12:47PM 40.5025 -119.3731 36° Northeast 473 544 41,000  Level Oakland Center
12:48PM 40.6064 -119.2719 36° Northeast 468 539 41,000  Level Oakland Center
12:49PM 40.7350 -119.1464 36° Northeast 475 547 41,000  Level Oakland Center
12:50PM 40.8292 -119.0550 36° Northeast 478 550 41,000  Level Oakland Center
12:51PM 40.9331 -118.9531 37° Northeast 481 554 41,000  Level Salt Lake Center
12:52PM 41.0372 -118.8494 37° Northeast 486 559 41,000  Level Salt Lake Center
12:53PM 41.1406 -118.7464 37° Northeast 485 558 41,000  Level Salt Lake Center
12:54PM 41.2639 -118.6261 36° Northeast 488 562 41,000  Level Salt Lake Center
12:55PM 41.3697 -118.5222 36° Northeast 492 566 41,000  Level Salt Lake Center
12:56PM 41.4731 -118.4164 37° Northeast 489 563 41,000  Level Salt Lake Center
12:57PM 41.5947 -118.2947 37° Northeast 487 560 41,000  Level Salt Lake Center
12:58PM 41.6978 -118.1908 37° Northeast 483 556 41,000  Level Salt Lake Center
12:59PM 41.8178 -118.0667 38° Northeast 485 558 41,000  Level Salt Lake Center
01:00PM 41.9208 -117.9619 37° Northeast 486 559 41,000  Level Salt Lake Center
01:01PM 42.0217 -117.8556 38° Northeast 482 555 41,000  Level Salt Lake Center
01:02PM 42.1419 -117.7308 38° Northeast 487 560 41,000  Level Salt Lake Center
01:03PM 42.2539 -117.6103 39° Northeast 492 566 41,000  Level Salt Lake Center
01:04PM 42.3567 -117.5036 37° Northeast 487 560 41,000  Level Salt Lake Center
01:06PM 42.4589 -117.3983 37° Northeast 482 555 41,000  Level Salt Lake Center
01:07PM 42.5772 -117.2711 38° Northeast 484 557 41,000  Level Salt Lake Center
01:08PM 42.6786 -117.1597 39° Northeast 487 560 41,000 -240 Level Salt Lake Center
01:09PM 42.7942 -117.0372 38° Northeast 470 541 40,600 -420 Descending Salt Lake Center
01:10PM 42.8975 -116.9278 38° Northeast 490 564 40,200 -1,860 Descending Salt Lake Center
01:11PM 43.0003 -116.8153 39° Northeast 493 567 36,900 -4,440 Descending Salt Lake Center
01:12PM 43.1219 -116.6856 38° Northeast 496 571 31,100 -6,000 Descending Salt Lake Center
01:13PM 43.2269 -116.5725 38° Northeast 501 577 24,600 -7,500 Descending Salt Lake Center
01:14PM 43.3372 -116.4456 40° Northeast 469 540 15,900 -7,200 Descending Salt Lake Center
01:15PM 43.3975 -116.3442 51° Northeast 357 411 9,900 -4,620 Descending Salt Lake Center
01:16PM 43.4244 -116.2428 70° East 278 320 6,500 -2,220 Descending Salt Lake Center
01:17PM 43.4725 -116.1833 42° Northeast 231 266 5,400 -960 Descending Salt Lake Center
01:18PM 43.5206 -116.1611 19° North 191 220 4,600 -780 Descending Salt Lake Center
01:19PM 43.5581 -116.1878 333° Northwest 167 192 3,900 -720 Descending Salt Lake Center
01:21PM 43.5500 -116.2167 36° Northeast  Level FlightAware Approximate
01:28PM 43.5644 -116.2229 36° Northeast  Level Estimated